Time;durP1;ratioP1;P1;durP2;ratioP2;P2;SDS_P1;SDS_P2;PMS_P1;PMS_P2;Temp;Humidity;BMP_temperature;BMP_pressure;BME280_temperature;BME280_humidity;BME280_pressure;Samples;Min_cycle;Max_cycle;Signal;HPM_P1;HPM_P2
2022/03/12 00:01:33;;;;;;;10.63;8.20;;;;;;;0.17;51.82;102756.31;1727834;82;21027;-74
2022/03/12 00:04:01;;;;;;;10.55;7.35;;;;;;;0.17;51.94;102754.64;1715479;82;21400;-75
2022/03/12 00:06:31;;;;;;;9.58;7.05;;;;;;;0.19;51.46;102757.27;1735271;82;21079;-74
2022/03/12 00:08:58;;;;;;;10.82;7.30;;;;;;;0.19;51.28;102758.55;1714678;82;21584;-74
2022/03/12 00:11:29;;;;;;;9.95;7.40;;;;;;;0.20;51.14;102756.48;1707922;82;21098;-75
2022/03/12 00:13:57;;;;;;;10.70;6.67;;;;;;;0.21;51.18;102749.27;1717775;82;21045;-75
2022/03/12 00:16:26;;;;;;;9.68;7.25;;;;;;;0.22;51.35;102752.33;1714847;82;21492;-74
2022/03/12 00:18:57;;;;;;;13.83;7.62;;;;;;;0.23;51.21;102745.14;1711954;82;21039;-74
2022/03/12 00:21:42;;;;;;;9.95;7.08;;;;;;;0.24;51.25;102749.45;1723945;81;21348;-74
2022/03/12 00:24:10;;;;;;;10.72;6.95;;;;;;;0.24;51.24;102740.09;1723791;82;20994;-75
2022/03/12 00:26:40;;;;;;;9.73;7.35;;;;;;;0.25;51.22;102740.98;1720570;82;21090;-75
2022/03/12 00:29:14;;;;;;;9.55;6.72;;;;;;;0.26;51.26;102740.16;1721874;82;21082;-75
2022/03/12 00:31:37;;;;;;;10.63;7.35;;;;;;;0.26;51.23;102731.20;1719644;82;21647;-74
2022/03/12 00:34:04;;;;;;;12.33;7.05;;;;;;;0.27;51.14;102732.98;1724272;82;21018;-74
2022/03/12 00:36:31;;;;;;;11.12;7.55;;;;;;;0.27;50.89;102733.83;1708331;82;21545;-75
2022/03/12 00:38:58;;;;;;;8.55;6.53;;;;;;;0.28;51.05;102736.00;1716979;82;21525;-75
2022/03/12 00:41:25;;;;;;;11.43;6.58;;;;;;;0.30;51.07;102729.27;1723963;81;21585;-75
2022/03/12 00:43:53;;;;;;;12.35;7.60;;;;;;;0.29;50.85;102731.37;1722678;82;21550;-75
2022/03/12 00:46:20;;;;;;;8.83;6.67;;;;;;;0.29;51.10;102724.97;1719193;82;21022;-75
2022/03/12 00:48:49;;;;;;;9.93;7.22;;;;;;;0.30;50.99;102731.84;1721266;82;21043;-74
2022/03/12 00:51:16;;;;;;;11.25;7.60;;;;;;;0.28;50.92;102728.31;1711635;82;21533;-75
2022/03/12 00:53:44;;;;;;;11.88;7.42;;;;;;;0.28;50.88;102728.31;1706237;83;21197;-74
2022/03/12 00:56:11;;;;;;;9.10;6.60;;;;;;;0.25;50.60;102733.30;1695876;82;21062;-74
2022/03/12 00:58:38;;;;;;;9.30;6.92;;;;;;;0.24;50.65;102727.69;1711362;82;21023;-75
2022/03/12 01:01:06;;;;;;;11.05;7.62;;;;;;;0.24;50.93;102726.41;1716789;82;21114;-75
2022/03/12 01:03:33;;;;;;;10.53;7.17;;;;;;;0.24;50.57;102726.41;1714572;82;20996;-74
2022/03/12 01:06:01;;;;;;;9.88;7.22;;;;;;;0.22;50.56;102720.33;1712466;82;21014;-74
2022/03/12 01:08:30;;;;;;;10.30;6.80;;;;;;;0.20;50.31;102718.97;1714762;82;20999;-74
2022/03/12 01:11:09;;;;;;;10.80;7.55;;;;;;;0.19;50.63;102725.27;1715365;82;21035;-75
2022/03/12 01:13:38;;;;;;;10.98;7.35;;;;;;;0.19;50.43;102727.83;1710636;83;21122;-75
2022/03/12 01:16:06;;;;;;;11.22;7.80;;;;;;;0.17;50.71;102729.44;1743687;80;20991;-74
2022/03/12 01:18:38;;;;;;;12.18;7.33;;;;;;;0.14;50.42;102734.41;1708337;83;21047;-74
2022/03/12 01:21:16;;;;;;;11.20;7.70;;;;;;;0.09;50.42;102730.72;1778338;79;21043;-74
2022/03/12 01:23:42;;;;;;;10.18;6.92;;;;;;;0.08;50.39;102736.66;1643523;86;21070;-75
2022/03/12 01:26:11;;;;;;;10.78;7.22;;;;;;;0.06;50.79;102726.35;1624444;86;21522;-75
2022/03/12 01:28:40;;;;;;;11.55;7.50;;;;;;;0.05;50.54;102741.60;1626916;86;21099;-75
2022/03/12 01:31:07;;;;;;;10.50;7.40;;;;;;;0.03;50.54;102739.37;1627887;86;21046;-74
2022/03/12 01:33:34;;;;;;;11.40;7.47;;;;;;;-0.01;50.70;102742.17;1619262;86;21196;-74
2022/03/12 01:36:01;;;;;;;9.95;7.53;;;;;;;-0.02;50.96;102745.13;1631730;86;21624;-74
2022/03/12 01:38:48;;;;;;;12.73;7.83;;;;;;;-0.02;50.79;102738.73;1660987;86;21522;-76
2022/03/12 01:41:26;;;;;;;10.95;7.17;;;;;;;-0.02;50.83;102745.13;1641048;86;21630;-74
2022/03/12 01:43:53;;;;;;;11.28;8.23;;;;;;;-0.06;50.69;102748.72;1593128;88;21542;-75
2022/03/12 01:46:41;;;;;;;12.88;8.25;;;;;;;-0.10;50.68;102742.56;1601149;88;21069;-74
2022/03/12 01:49:23;;;;;;;9.53;7.22;;;;;;;-0.11;50.53;102752.73;1544451;91;21081;-75
2022/03/12 01:51:52;;;;;;;11.60;7.20;;;;;;;-0.17;50.29;102744.34;1568883;91;21724;-75
2022/03/12 01:54:24;;;;;;;10.45;8.13;;;;;;;-0.22;50.28;102759.83;1532889;92;21095;-74
2022/03/12 01:56:53;;;;;;;11.30;7.70;;;;;;;-0.25;50.27;102759.66;1532777;93;21072;-75
2022/03/12 01:59:21;;;;;;;9.48;7.50;;;;;;;-0.27;50.49;102756.13;1526523;93;21084;-74
2022/03/12 02:01:52;;;;;;;12.95;7.67;;;;;;;-0.28;50.73;102762.06;1532551;93;21661;-75
2022/03/12 02:04:20;;;;;;;11.50;7.85;;;;;;;-0.31;50.56;102755.48;1533656;92;21185;-74
2022/03/12 02:06:47;;;;;;;12.37;7.50;;;;;;;-0.33;50.30;102771.15;1508873;94;21575;-75
2022/03/12 02:09:17;;;;;;;11.40;7.92;;;;;;;-0.35;50.46;102767.62;1507793;94;21107;-74
2022/03/12 02:11:51;;;;;;;9.65;7.33;;;;;;;-0.36;50.78;102778.67;1506854;94;21890;-75
2022/03/12 02:14:26;;;;;;;12.15;7.90;;;;;;;-0.36;50.99;102776.13;1503370;94;21586;-75
2022/03/12 02:17:00;;;;;;;9.03;6.70;;;;;;;-0.33;50.98;102769.88;1473726;96;21623;-74
2022/03/12 02:19:29;;;;;;;11.18;8.15;;;;;;;-0.31;50.55;102770.84;1419890;99;21725;-74
2022/03/12 02:22:01;;;;;;;9.35;6.28;;;;;;;-0.31;50.55;102772.11;1455072;97;21101;-74
2022/03/12 02:24:30;;;;;;;11.38;7.12;;;;;;;-0.30;50.61;102776.45;1413523;101;21141;-75
2022/03/12 02:26:58;;;;;;;10.40;7.45;;;;;;;-0.29;50.71;102778.19;1408055;100;21133;-75
2022/03/12 02:29:25;;;;;;;10.72;7.80;;;;;;;-0.28;50.57;102781.25;1407026;101;21165;-74
2022/03/12 02:31:56;;;;;;;12.40;7.00;;;;;;;-0.29;50.37;102772.22;1404504;100;21207;-74
2022/03/12 02:34:39;;;;;;;9.95;7.30;;;;;;;-0.31;50.42;102774.67;1407659;100;21124;-74
2022/03/12 02:37:05;;;;;;;11.40;7.20;;;;;;;-0.31;50.53;102789.16;1360835;104;21232;-74
2022/03/12 02:39:37;;;;;;;10.10;6.33;;;;;;;-0.30;50.26;102785.80;1371016;103;21220;-74
2022/03/12 02:42:06;;;;;;;11.18;7.28;;;;;;;-0.29;50.33;102796.52;1394825;101;21112;-75
2022/03/12 02:44:32;;;;;;;10.13;7.03;;;;;;;-0.30;50.16;102798.19;1398656;101;21124;-73
2022/03/12 02:47:22;;;;;;;11.03;7.30;;;;;;;-0.30;50.10;102795.63;1390229;101;21631;-74
2022/03/12 02:49:56;;;;;;;8.95;7.35;;;;;;;-0.31;49.95;102800.25;1394462;101;21178;-74
2022/03/12 02:52:27;;;;;;;11.97;7.28;;;;;;;-0.32;50.04;102807.46;1387662;101;21225;-74
2022/03/12 02:54:57;;;;;;;11.30;7.83;;;;;;;-0.32;50.07;102804.02;1424235;99;21109;-74
2022/03/12 02:57:26;;;;;;;12.33;7.20;;;;;;;-0.32;49.98;102806.57;1399386;101;21228;-74
2022/03/12 02:59:54;;;;;;;10.40;7.37;;;;;;;-0.33;50.07;102804.41;1401085;101;21231;-75
2022/03/12 03:02:31;;;;;;;9.93;6.37;;;;;;;-0.34;49.97;102810.33;1389783;101;21712;-74
2022/03/12 03:04:55;;;;;;;9.08;7.08;;;;;;;-0.34;49.70;102805.22;1397226;101;21121;-75
2022/03/12 03:07:24;;;;;;;9.53;7.33;;;;;;;-0.34;49.57;102804.33;1385702;102;21144;-74
2022/03/12 03:09:53;;;;;;;10.55;6.92;;;;;;;-0.36;49.69;102802.97;1430298;98;21331;-74
2022/03/12 03:12:22;;;;;;;9.05;6.62;;;;;;;-0.36;49.70;102805.92;1428175;98;21120;-74
2022/03/12 03:14:50;;;;;;;11.80;7.17;;;;;;;-0.37;49.70;102804.18;1492733;93;21128;-75
2022/03/12 03:17:18;;;;;;;10.40;6.62;;;;;;;-0.43;49.70;102800.87;1533796;92;21037;-74
2022/03/12 03:19:46;;;;;;;10.15;7.20;;;;;;;-0.46;49.70;102801.99;1564589;89;21057;-74
2022/03/12 03:22:15;;;;;;;8.45;6.62;;;;;;;-0.48;49.41;102800.14;1673453;79;21014;-74
2022/03/12 03:24:42;;;;;;;10.38;6.97;;;;;;;-0.51;49.44;102799.56;1782492;79;21054;-75
2022/03/12 03:27:09;;;;;;;9.63;6.92;;;;;;;-0.52;49.50;102799.49;1776127;79;21017;-75
2022/03/12 03:29:37;;;;;;;8.55;6.03;;;;;;;-0.56;49.27;102794.61;1763932;80;21035;-74
2022/03/12 03:32:05;;;;;;;10.82;7.42;;;;;;;-0.55;49.41;102803.14;1776993;80;21474;-74
2022/03/12 03:34:33;;;;;;;10.78;6.37;;;;;;;-0.57;49.18;102795.78;1761891;80;21014;-74
2022/03/12 03:37:00;;;;;;;9.75;7.08;;;;;;;-0.60;49.20;102800.35;1752616;80;21018;-75
2022/03/12 03:39:27;;;;;;;10.45;7.53;;;;;;;-0.61;49.46;102798.58;1779452;79;21105;-74
2022/03/12 03:41:55;;;;;;;12.60;7.15;;;;;;;-0.61;49.61;102804.08;1766359;79;21081;-75
2022/03/12 03:44:28;;;;;;;11.33;7.03;;;;;;;-0.62;49.43;102804.50;1781953;79;21605;-74
2022/03/12 03:46:56;;;;;;;10.45;7.55;;;;;;;-0.63;49.45;102809.50;1781625;79;21056;-74
2022/03/12 03:49:24;;;;;;;9.50;6.85;;;;;;;-0.64;49.46;102817.98;1752548;80;21025;-74
2022/03/12 03:51:53;;;;;;;9.75;6.80;;;;;;;-0.64;49.45;102823.98;1778796;79;21344;-74
2022/03/12 03:54:20;;;;;;;11.78;7.28;;;;;;;-0.63;49.53;102820.63;1782825;79;21036;-74
2022/03/12 03:56:47;;;;;;;9.73;6.87;;;;;;;-0.62;49.38;102815.12;1781742;79;21054;-74
2022/03/12 03:59:14;;;;;;;10.38;7.33;;;;;;;-0.62;49.56;102811.28;1790965;79;21018;-75
2022/03/12 04:01:42;;;;;;;10.90;7.40;;;;;;;-0.63;49.49;102814.62;1763469;80;20955;-75
2022/03/12 04:04:12;;;;;;;10.23;7.33;;;;;;;-0.64;49.57;102819.27;1758132;80;21029;-74
2022/03/12 04:06:40;;;;;;;11.85;7.65;;;;;;;-0.64;49.47;102817.60;1771672;79;21003;-74
2022/03/12 04:09:07;;;;;;;11.45;7.55;;;;;;;-0.64;49.55;102821.44;1791495;79;20990;-74
2022/03/12 04:11:35;;;;;;;11.60;7.12;;;;;;;-0.63;49.35;102810.39;1776522;79;21121;-74
2022/03/12 04:14:05;;;;;;;11.22;7.72;;;;;;;-0.64;48.96;102817.60;1769338;79;21018;-75
2022/03/12 04:16:34;;;;;;;10.80;7.03;;;;;;;-0.65;48.94;102819.66;1772609;80;21534;-74
2022/03/12 04:19:05;;;;;;;9.33;6.58;;;;;;;-0.65;49.23;102817.10;1791320;79;21004;-74
2022/03/12 04:21:31;;;;;;;9.93;7.28;;;;;;;-0.63;49.22;102820.63;1775391;79;21485;-74
2022/03/12 04:24:00;;;;;;;8.18;6.92;;;;;;;-0.64;48.69;102826.55;1787518;78;21049;-74
2022/03/12 04:26:28;;;;;;;12.85;7.50;;;;;;;-0.64;49.02;102823.98;1786030;79;21011;-75
2022/03/12 04:28:58;;;;;;;10.78;7.40;;;;;;;-0.63;48.68;102829.57;1772644;79;21031;-74
2022/03/12 04:31:25;;;;;;;10.60;6.65;;;;;;;-0.64;48.58;102830.77;1792671;79;21021;-73
2022/03/12 04:33:53;;;;;;;9.25;6.75;;;;;;;-0.65;48.65;102844.33;1778551;79;20982;-74
2022/03/12 04:36:20;;;;;;;10.28;7.20;;;;;;;-0.66;49.04;102843.44;1774996;80;21003;-74
2022/03/12 04:38:49;;;;;;;11.03;7.28;;;;;;;-0.65;48.86;102837.55;1774767;79;21015;-75
2022/03/12 04:41:17;;;;;;;9.60;7.33;;;;;;;-0.64;48.48;102838.44;1783719;79;20987;-74
2022/03/12 04:43:47;;;;;;;11.30;8.15;;;;;;;-0.66;48.19;102844.72;1726974;81;21073;-74
2022/03/12 04:46:14;;;;;;;10.82;7.05;;;;;;;-0.67;48.94;102849.37;1782253;79;20987;-75
2022/03/12 04:48:41;;;;;;;10.30;7.35;;;;;;;-0.68;49.15;102856.53;1782608;79;21007;-74
2022/03/12 04:51:08;;;;;;;9.18;6.42;;;;;;;-0.67;49.10;102858.31;1796921;79;21071;-74
2022/03/12 04:53:38;;;;;;;8.83;6.50;;;;;;;-0.68;49.15;102857.81;1802535;79;21514;-74
2022/03/12 04:56:05;;;;;;;11.97;6.95;;;;;;;-0.68;49.40;102857.81;1782068;79;20999;-75
2022/03/12 04:58:32;;;;;;;9.58;6.58;;;;;;;-0.67;49.22;102868.55;1787001;79;21066;-74
2022/03/12 05:00:59;;;;;;;8.93;6.33;;;;;;;-0.67;49.20;102865.98;1771645;79;21028;-74
2022/03/12 05:03:27;;;;;;;9.18;6.78;;;;;;;-0.65;49.09;102863.11;1774703;79;21066;-74
2022/03/12 05:05:54;;;;;;;11.08;7.22;;;;;;;-0.65;49.20;102866.95;1780620;79;21507;-74
2022/03/12 05:08:28;;;;;;;7.60;6.25;;;;;;;-0.65;49.02;102858.00;1772286;80;21011;-75
2022/03/12 05:10:57;;;;;;;10.13;7.10;;;;;;;-0.65;49.04;102858.00;1786124;79;21013;-74
2022/03/12 05:13:27;;;;;;;9.43;6.83;;;;;;;-0.68;48.67;102861.65;1783448;79;21085;-74
2022/03/12 05:15:59;;;;;;;9.08;6.85;;;;;;;-0.71;48.97;102869.16;1778905;79;21517;-74
2022/03/12 05:18:26;;;;;;;10.45;6.87;;;;;;;-0.71;49.24;102872.11;1716148;82;21082;-74
2022/03/12 05:20:53;;;;;;;11.10;6.83;;;;;;;-0.72;49.34;102863.55;1704135;83;21456;-74
2022/03/12 05:23:23;;;;;;;7.95;6.40;;;;;;;-0.72;49.38;102872.91;1708336;83;21085;-75
2022/03/12 05:25:53;;;;;;;8.95;6.58;;;;;;;-0.73;49.44;102871.14;1702360;83;21045;-74
2022/03/12 05:28:26;;;;;;;9.10;6.70;;;;;;;-0.73;49.52;102872.03;1710071;83;21629;-75
2022/03/12 05:30:56;;;;;;;10.48;7.62;;;;;;;-0.72;49.53;102875.05;1704324;82;21023;-74
2022/03/12 05:33:23;;;;;;;9.23;7.00;;;;;;;-0.71;49.45;102878.11;1712244;83;21050;-75
2022/03/12 05:35:53;;;;;;;9.65;6.72;;;;;;;-0.70;48.99;102882.41;1719074;83;21169;-75
2022/03/12 05:38:19;;;;;;;10.70;7.17;;;;;;;-0.70;48.85;102871.33;1695195;83;21081;-76
2022/03/12 05:40:48;;;;;;;8.25;6.62;;;;;;;-0.76;49.31;102882.06;1700740;83;21053;-76
2022/03/12 05:43:16;;;;;;;10.70;7.53;;;;;;;-0.78;49.51;102881.09;1707197;83;21054;-76
2022/03/12 05:45:48;;;;;;;10.35;7.10;;;;;;;-0.77;49.31;102887.09;1694500;83;21103;-76
2022/03/12 05:48:16;;;;;;;9.85;7.17;;;;;;;-0.82;48.98;102884.27;1706441;83;21038;-77
2022/03/12 05:50:48;;;;;;;11.40;7.45;;;;;;;-0.84;49.19;102885.85;1692484;83;21094;-77
2022/03/12 05:53:19;;;;;;;11.83;7.03;;;;;;;-0.87;49.25;102889.10;1698422;83;21026;-77
2022/03/12 05:55:46;;;;;;;13.75;8.10;;;;;;;-0.89;48.98;102883.02;1700630;83;21099;-76
2022/03/12 06:00:46;;;;;;;8.68;6.70;;;;;;;-0.92;49.23;102894.75;1648283;86;21098;-76
2022/03/12 06:03:13;;;;;;;12.53;8.50;;;;;;;-0.91;49.06;102888.86;1644849;86;21043;-76
2022/03/12 06:05:41;;;;;;;9.85;7.25;;;;;;;-0.91;49.13;102896.53;1648659;86;21063;-76
2022/03/12 06:08:08;;;;;;;9.85;6.80;;;;;;;-0.87;48.88;102894.64;1646577;86;21038;-76
2022/03/12 06:10:45;;;;;;;14.53;7.70;;;;;;;-0.79;48.87;102903.63;1648458;86;21071;-75
2022/03/12 06:13:08;;;;;;;9.35;6.85;;;;;;;-0.71;48.55;102903.67;1645657;86;22501;-75
2022/03/12 06:15:38;;;;;;;9.13;7.30;;;;;;;-0.64;48.57;102903.25;1654829;86;21211;-75
2022/03/12 06:18:04;;;;;;;10.32;6.33;;;;;;;-0.56;48.27;102907.12;1633146;86;21569;-77
2022/03/12 06:20:37;;;;;;;9.70;7.75;;;;;;;-0.48;47.74;102910.98;1645404;83;21134;-75
2022/03/12 06:23:02;;;;;;;12.43;6.97;;;;;;;-0.42;47.31;102911.34;1728050;81;21794;-76
2022/03/12 06:25:33;;;;;;;9.63;7.17;;;;;;;-0.33;47.23;102911.84;1733287;80;21496;-75
2022/03/12 06:28:01;;;;;;;10.48;8.55;;;;;;;-0.22;47.27;102908.60;1730142;81;21148;-75
2022/03/12 06:30:29;;;;;;;10.43;7.05;;;;;;;-0.03;47.08;102912.67;1741190;81;21041;-76
2022/03/12 06:32:57;;;;;;;12.25;7.15;;;;;;;0.14;46.15;102900.80;1747658;81;21522;-76
2022/03/12 06:35:25;;;;;;;9.40;6.97;;;;;;;0.23;45.55;102902.59;1741545;81;21073;-76
2022/03/12 06:37:52;;;;;;;8.40;6.30;;;;;;;0.29;45.50;102902.92;1739586;82;21025;-76
2022/03/12 06:40:21;;;;;;;9.18;6.85;;;;;;;0.34;45.52;102903.64;1742391;81;21053;-76
2022/03/12 06:42:55;;;;;;;9.18;6.12;;;;;;;0.41;45.28;102907.41;1734495;82;21092;-76
2022/03/12 06:45:22;;;;;;;7.53;6.22;;;;;;;0.48;44.98;102910.76;1724732;82;21037;-75
2022/03/12 06:47:49;;;;;;;9.18;6.97;;;;;;;0.54;45.09;102914.92;1747948;81;21054;-76
2022/03/12 06:50:19;;;;;;;8.78;6.08;;;;;;;0.59;44.63;102914.78;1744804;81;21050;-76
2022/03/12 06:52:48;;;;;;;7.10;5.50;;;;;;;0.65;44.72;102922.79;1741916;81;21051;-76
2022/03/12 06:55:18;;;;;;;8.90;6.22;;;;;;;0.73;44.65;102920.23;1742892;81;21030;-75
2022/03/12 06:57:47;;;;;;;8.90;6.95;;;;;;;0.78;44.57;102924.78;1737936;80;21635;-75
2022/03/12 07:00:19;;;;;;;10.23;7.03;;;;;;;0.85;44.17;102934.95;1742283;81;21090;-77
2022/03/12 07:02:46;;;;;;;9.35;6.22;;;;;;;0.90;44.17;102933.52;1739772;81;21076;-77
2022/03/12 07:05:13;;;;;;;8.53;5.80;;;;;;;0.92;43.78;102940.89;1781738;78;21029;-77
2022/03/12 07:07:41;;;;;;;8.90;6.20;;;;;;;0.93;43.44;102937.94;1791044;79;21049;-77
2022/03/12 07:10:08;;;;;;;7.90;5.37;;;;;;;0.94;43.74;102936.72;1770073;79;21054;-77
2022/03/12 07:12:37;;;;;;;7.00;6.10;;;;;;;0.99;43.91;102932.70;1778345;79;21082;-78
2022/03/12 07:15:06;;;;;;;9.85;6.42;;;;;;;1.08;43.58;102940.88;1779790;79;21086;-77
2022/03/12 07:17:34;;;;;;;8.83;5.70;;;;;;;1.15;43.57;102933.09;1779652;79;21093;-77
2022/03/12 07:20:03;;;;;;;7.80;5.87;;;;;;;1.19;43.40;102939.75;1781246;79;21534;-77
2022/03/12 07:22:32;;;;;;;8.60;5.42;;;;;;;1.23;43.57;102942.94;1775924;80;21477;-77
2022/03/12 07:24:59;;;;;;;7.20;5.97;;;;;;;1.31;43.82;102940.36;1778272;79;21539;-72
2022/03/12 07:27:27;;;;;;;7.67;5.92;;;;;;;1.37;43.73;102950.92;1766524;80;21083;-72
2022/03/12 07:29:54;;;;;;;7.97;5.50;;;;;;;1.38;43.41;102941.13;1767935;78;20994;-73
2022/03/12 07:32:22;;;;;;;7.95;5.90;;;;;;;1.33;43.20;102936.19;1769458;80;21065;-72
2022/03/12 07:34:49;;;;;;;6.60;5.50;;;;;;;1.30;43.22;102942.43;1754914;80;21074;-72
2022/03/12 07:37:16;;;;;;;8.45;5.37;;;;;;;1.27;43.69;102943.97;1755999;79;21021;-73
2022/03/12 07:39:44;;;;;;;7.85;5.80;;;;;;;1.25;43.31;102940.05;1763449;80;21050;-73
2022/03/12 07:42:11;;;;;;;7.00;5.75;;;;;;;1.23;43.27;102943.34;1769686;80;21001;-74
2022/03/12 07:44:39;;;;;;;5.83;4.80;;;;;;;1.23;43.34;102939.09;1759387;80;21043;-73
2022/03/12 07:47:07;;;;;;;5.37;4.10;;;;;;;1.27;42.77;102948.70;1779456;78;21034;-73
2022/03/12 07:49:35;;;;;;;6.00;5.20;;;;;;;1.28;42.63;102933.78;1782974;78;21089;-72
2022/03/12 07:52:02;;;;;;;6.22;4.75;;;;;;;1.28;43.12;102951.73;1779230;78;21021;-74
2022/03/12 07:54:31;;;;;;;7.45;5.00;;;;;;;1.32;43.25;102948.52;1775131;78;21041;-73
2022/03/12 07:56:58;;;;;;;9.33;4.60;;;;;;;1.33;43.46;102955.42;1795769;79;21042;-74
2022/03/12 08:01:55;;;;;;;5.22;4.22;;;;;;;1.39;43.03;102954.45;1705116;81;21140;-72
2022/03/12 08:04:22;;;;;;;7.00;4.47;;;;;;;1.35;43.12;102940.99;1718623;81;21020;-73
2022/03/12 08:06:50;;;;;;;6.03;4.65;;;;;;;1.37;43.41;102943.62;1704075;82;21076;-74
2022/03/12 08:09:17;;;;;;;7.05;4.28;;;;;;;1.41;43.76;102941.69;1695724;82;21541;-73
2022/03/12 08:11:45;;;;;;;5.58;4.03;;;;;;;1.45;44.05;102952.19;1701363;82;21906;-73
2022/03/12 08:16:41;;;;;;;6.12;4.65;;;;;;;1.54;43.85;102952.66;1675309;85;21118;-74
2022/03/12 08:19:09;;;;;;;6.10;4.47;;;;;;;1.59;44.04;102960.55;1670882;85;21534;-73
2022/03/12 08:21:37;;;;;;;5.87;4.33;;;;;;;1.63;43.35;102958.22;1673417;84;21555;-72
2022/03/12 08:24:05;;;;;;;6.83;4.37;;;;;;;1.67;43.75;102953.25;1673527;85;21625;-74
2022/03/12 08:26:34;;;;;;;7.83;4.12;;;;;;;1.71;43.63;102960.30;1654257;85;21084;-76
2022/03/12 08:29:01;;;;;;;5.53;3.70;;;;;;;1.79;43.71;102960.27;1674491;84;21134;-74
2022/03/12 08:31:28;;;;;;;5.08;4.12;;;;;;;1.88;42.98;102955.55;1673550;84;21151;-74
2022/03/12 08:33:55;;;;;;;4.00;3.33;;;;;;;1.95;42.23;102953.77;1672121;85;21095;-74
2022/03/12 08:36:22;;;;;;;4.55;3.55;;;;;;;2.00;41.49;102951.89;1673090;85;21148;-74
2022/03/12 08:38:51;;;;;;;4.92;3.83;;;;;;;2.07;41.43;102956.92;1673054;85;21044;-73
2022/03/12 08:41:21;;;;;;;5.47;3.58;;;;;;;2.14;41.54;102952.57;1673703;85;21043;-73
2022/03/12 08:43:49;;;;;;;4.35;3.27;;;;;;;2.23;41.11;102943.99;1672183;84;21063;-73
2022/03/12 08:46:16;;;;;;;5.47;4.05;;;;;;;2.32;41.07;102944.43;1671378;84;21231;-74
2022/03/12 08:48:43;;;;;;;6.53;3.65;;;;;;;2.40;41.19;102947.83;1672010;85;21055;-73
2022/03/12 08:51:11;;;;;;;3.58;3.27;;;;;;;2.49;41.21;102940.95;1672452;85;21051;-73
2022/03/12 08:53:38;;;;;;;5.37;3.00;;;;;;;2.56;41.27;102950.69;1677586;83;21061;-75
2022/03/12 08:56:06;;;;;;;4.67;3.20;;;;;;;2.63;40.64;102944.14;1699262;83;21116;-72
2022/03/12 08:58:33;;;;;;;4.85;3.02;;;;;;;2.67;40.50;102939.21;1735058;78;21066;-75
2022/03/12 09:01:02;;;;;;;6.00;3.47;;;;;;;2.75;40.40;102939.54;1711460;82;21527;-76
2022/03/12 09:03:30;;;;;;;6.20;3.80;;;;;;;2.82;40.67;102939.91;1712041;82;21007;-74
2022/03/12 09:05:57;;;;;;;4.40;2.83;;;;;;;2.88;40.55;102937.60;1713283;82;21086;-74
2022/03/12 09:08:25;;;;;;;5.67;3.12;;;;;;;2.94;39.57;102935.30;1782339;79;21040;-76
2022/03/12 09:10:52;;;;;;;3.70;2.83;;;;;;;3.01;39.09;102939.88;1779446;79;21502;-74
2022/03/12 09:13:19;;;;;;;5.12;3.33;;;;;;;3.07;38.48;102936.28;1715822;82;21569;-74
2022/03/12 09:15:48;;;;;;;6.70;4.25;;;;;;;3.14;38.33;102942.17;1720232;82;21534;-74
2022/03/12 09:18:16;;;;;;;2.20;2.00;;;;;;;3.18;38.02;102933.77;1713263;82;21026;-74
2022/03/12 09:20:47;;;;;;;2.70;2.12;;;;;;;3.24;36.91;102931.45;1721033;82;21078;-74
2022/03/12 09:23:19;;;;;;;3.35;2.50;;;;;;;3.26;35.66;102932.40;1705616;82;21121;-77
2022/03/12 09:25:47;;;;;;;3.50;2.58;;;;;;;3.30;34.92;102935.97;1710660;81;21075;-73
2022/03/12 09:28:14;;;;;;;3.50;2.52;;;;;;;3.38;35.51;102931.17;1708089;83;21031;-78
2022/03/12 09:30:42;;;;;;;2.47;2.02;;;;;;;3.43;35.26;102936.08;1719607;82;21146;-75
2022/03/12 09:33:09;;;;;;;4.62;2.30;;;;;;;3.48;34.08;102930.73;1710731;82;21535;-75
2022/03/12 09:35:38;;;;;;;2.98;2.25;;;;;;;3.50;34.07;102935.14;1704043;82;21086;-76
2022/03/12 09:38:06;;;;;;;4.12;2.55;;;;;;;3.53;34.09;102930.09;1725922;82;20998;-75
2022/03/12 09:40:33;;;;;;;2.65;2.30;;;;;;;3.61;34.75;102920.11;1762170;79;21067;-73
2022/03/12 09:43:00;;;;;;;4.53;2.30;;;;;;;3.67;34.53;102921.23;1764561;80;21456;-73
2022/03/12 09:45:28;;;;;;;2.42;1.80;;;;;;;3.74;33.88;102924.95;1773622;79;21001;-77
2022/03/12 09:47:56;;;;;;;2.20;1.80;;;;;;;3.78;33.60;102919.10;1759662;80;21061;-74
2022/03/12 09:50:23;;;;;;;2.15;1.72;;;;;;;3.81;34.12;102919.23;1761062;79;21062;-75
2022/03/12 09:52:51;;;;;;;3.37;2.02;;;;;;;3.88;33.74;102919.93;1779969;79;21049;-77
2022/03/12 09:55:19;;;;;;;2.58;2.10;;;;;;;3.93;33.24;102921.01;1760588;80;21031;-74
2022/03/12 09:57:47;;;;;;;3.17;1.95;;;;;;;3.95;33.33;102912.53;1746590;80;20982;-73
2022/03/12 10:00:16;;;;;;;3.02;2.37;;;;;;;3.96;32.84;102907.83;1780229;78;21475;-74
2022/03/12 10:02:43;;;;;;;2.62;2.17;;;;;;;4.02;33.09;102908.06;1765711;80;21109;-75
2022/03/12 10:07:42;;;;;;;4.08;1.87;;;;;;;4.14;33.36;102905.11;1706598;81;21553;-74
2022/03/12 10:10:15;;;;;;;4.05;2.55;;;;;;;4.23;32.59;102897.70;1733463;81;21023;-76
2022/03/12 10:12:44;;;;;;;4.53;2.60;;;;;;;4.29;32.46;102908.24;1742937;80;21062;-75
2022/03/12 10:15:12;;;;;;;3.52;2.40;;;;;;;4.33;32.02;102898.52;1737155;81;21112;-74
2022/03/12 10:17:39;;;;;;;3.25;2.02;;;;;;;4.40;32.32;102899.23;1717498;81;21114;-75
2022/03/12 10:20:11;;;;;;;3.90;1.90;;;;;;;4.47;32.17;102898.62;1712901;82;21118;-76
2022/03/12 10:22:39;;;;;;;3.40;1.90;;;;;;;4.53;32.48;102898.88;1722322;80;21565;-75
2022/03/12 10:25:07;;;;;;;3.70;2.77;;;;;;;4.62;32.71;102895.72;1745077;81;21027;-74
2022/03/12 10:27:35;;;;;;;3.85;2.05;;;;;;;4.71;32.35;102891.80;1720306;82;21006;-74
2022/03/12 10:30:02;;;;;;;2.33;1.80;;;;;;;4.78;32.57;102875.70;1717430;82;20997;-75
2022/03/12 10:32:34;;;;;;;3.87;1.95;;;;;;;4.84;32.10;102881.07;1734269;81;21113;-75
2022/03/12 10:35:02;;;;;;;15.20;7.83;;;;;;;4.91;32.73;102877.89;1644420;85;21626;-77
2022/03/12 10:37:31;;;;;;;10.63;5.33;;;;;;;5.07;32.80;102878.44;1642560;86;21080;-75
2022/03/12 10:40:12;;;;;;;3.45;2.65;;;;;;;5.19;32.58;102866.83;1656996;84;21058;-78
2022/03/12 10:42:52;;;;;;;3.73;1.70;;;;;;;5.32;32.57;102863.81;1646459;84;21060;-77
2022/03/12 10:45:24;;;;;;;5.08;3.12;;;;;;;5.40;32.81;102864.08;1652911;84;21151;-76
2022/03/12 10:47:55;;;;;;;8.23;3.27;;;;;;;5.46;32.22;102860.41;1606569;87;21482;-76
2022/03/12 10:50:30;;;;;;;12.70;4.28;;;;;;;5.50;31.74;102854.52;1628930;86;21050;-75
2022/03/12 10:52:58;;;;;;;2.47;1.75;;;;;;;5.52;31.78;102850.27;1616955;87;21184;-73
2022/03/12 10:55:33;;;;;;;4.53;2.85;;;;;;;5.51;32.05;102848.09;1627133;86;21129;-75
2022/03/12 10:58:08;;;;;;;2.87;2.00;;;;;;;5.49;32.40;102839.83;1629967;86;21531;-77
2022/03/12 11:00:39;;;;;;;3.05;1.77;;;;;;;5.49;32.30;102841.13;1622765;86;21034;-73
2022/03/12 11:03:11;;;;;;;2.00;1.70;;;;;;;5.54;32.45;102830.54;1634598;86;21060;-74
2022/03/12 11:05:38;;;;;;;2.00;1.50;;;;;;;5.60;32.25;102829.44;1618518;87;21100;-75
2022/03/12 11:08:21;;;;;;;2.17;1.50;;;;;;;5.60;31.75;102822.58;1589164;88;21155;-75
2022/03/12 11:16:24;;;;;;;2.65;2.00;;;;;;;5.64;31.88;102823.54;1581907;88;22420;-77
2022/03/12 11:18:59;;;;;;;2.98;1.87;;;;;;;5.62;32.19;102812.28;1548374;91;21091;-76
2022/03/12 11:21:43;;;;;;;2.62;2.10;;;;;;;5.65;33.06;102817.13;1510273;92;21100;-76
2022/03/12 11:24:23;;;;;;;3.47;2.22;;;;;;;5.76;32.83;102822.22;1514748;92;21107;-75
2022/03/12 11:29:28;;;;;;;3.22;1.82;;;;;;;6.00;32.30;102811.75;1463468;97;21201;-75
2022/03/12 11:32:09;;;;;;;3.10;1.42;;;;;;;6.04;32.06;102816.63;1453314;96;21154;-76
2022/03/12 11:34:41;;;;;;;1.47;1.20;;;;;;;6.10;32.25;102813.77;1423043;99;21320;-75
2022/03/12 11:37:15;;;;;;;2.85;1.37;;;;;;;6.19;31.90;102812.76;1425684;99;21283;-76
2022/03/12 11:39:53;;;;;;;2.22;1.40;;;;;;;6.25;32.21;102808.17;1450329;97;21104;-75
2022/03/12 11:42:25;;;;;;;2.37;1.50;;;;;;;6.28;31.97;102805.28;1441202;98;21145;-78
2022/03/12 11:44:55;;;;;;;4.00;1.60;;;;;;;6.39;31.45;102797.80;1476572;95;21152;-77
2022/03/12 11:47:27;;;;;;;2.37;1.50;;;;;;;6.39;31.45;102797.80;1477642;95;21599;-76
2022/03/12 11:49:56;;;;;;;3.20;2.00;;;;;;;6.44;30.70;102793.64;1453074;96;21149;-74
2022/03/12 11:52:23;;;;;;;3.00;2.12;;;;;;;6.42;31.13;102794.90;1389859;102;21166;-78
2022/03/12 11:54:54;;;;;;;2.02;1.50;;;;;;;6.45;31.17;102799.28;1374580;102;21118;-75